Time;durP1;ratioP1;P1;durP2;ratioP2;P2;SDS_P1;SDS_P2;PMS_P1;PMS_P2;Temp;Humidity;BMP_temperature;BMP_pressure;BME280_temperature;BME280_humidity;BME280_pressure;Samples;Min_cycle;Max_cycle;Signal;HPM_P1;HPM_P2
2022/11/30 00:00:10;;;;;;;;;;;2.90;99.90;;;;;;5064908;28;19920;-90
2022/11/30 00:02:35;;;;;;;;;;;3.10;99.90;;;;;;5060960;28;19964;-90
2022/11/30 00:05:01;;;;;;;;;;;3.20;99.90;;;;;;5061453;28;19966;-90
2022/11/30 00:07:26;;;;;;;;;;;3.20;99.90;;;;;;5065063;28;19974;-91
2022/11/30 00:09:52;;;;;;;;;;;3.20;99.90;;;;;;5054632;28;19967;-91
2022/11/30 00:12:17;;;;;;;;;;;3.30;99.90;;;;;;5057251;28;19928;-90
2022/11/30 00:14:43;;;;;;;;;;;3.40;99.90;;;;;;5065068;28;20019;-89
2022/11/30 00:17:08;;;;;;;;;;;3.50;99.90;;;;;;5063863;28;19924;-88
2022/11/30 00:19:34;;;;;;;;;;;3.60;99.90;;;;;;5061734;28;19924;-87
2022/11/30 00:21:59;;;;;;;;;;;3.60;99.90;;;;;;5063749;28;19924;-88
2022/11/30 00:24:25;;;;;;;;;;;3.70;99.90;;;;;;5058123;28;19921;-88
2022/11/30 00:26:50;;;;;;;;;;;3.80;99.90;;;;;;5062616;28;21491;-88
2022/11/30 00:29:16;;;;;;;;;;;3.80;99.90;;;;;;5061400;28;19921;-87
2022/11/30 00:31:41;;;;;;;;;;;3.90;99.90;;;;;;5060492;28;19921;-88
2022/11/30 00:34:07;;;;;;;;;;;4.00;99.90;;;;;;5063139;28;19954;-87
2022/11/30 00:36:32;;;;;;;;;;;4.10;99.90;;;;;;5060402;28;19927;-87
2022/11/30 00:38:58;;;;;;;;;;;4.20;99.90;;;;;;5064609;28;20299;-87
2022/11/30 00:41:23;;;;;;;;;;;4.20;99.90;;;;;;5061525;28;19924;-87
2022/11/30 00:43:49;;;;;;;;;;;4.20;99.90;;;;;;5062881;28;19924;-87
2022/11/30 00:46:14;;;;;;;;;;;4.20;99.90;;;;;;5061651;28;19920;-88
2022/11/30 00:48:40;;;;;;;;;;;4.30;99.90;;;;;;5060982;28;19925;-87
2022/11/30 00:51:07;;;;;;;;;;;4.30;99.90;;;;;;5063210;28;19971;-87
2022/11/30 00:53:32;;;;;;;;;;;4.30;99.90;;;;;;5062114;28;19921;-86
2022/11/30 00:55:58;;;;;;;;;;;4.30;99.90;;;;;;5079649;28;20395;-86
2022/11/30 00:58:24;;;;;;;;;;;4.20;99.90;;;;;;5064057;28;19931;-86
2022/11/30 01:00:49;;;;;;;;;;;5.10;99.90;;;;;;5060559;28;19962;-87
2022/11/30 01:03:15;;;;;;;;;;;4.30;99.90;;;;;;5062228;28;19928;-86
2022/11/30 01:05:42;;;;;;;;;;;4.30;99.90;;;;;;5060857;28;19920;-86
2022/11/30 01:08:08;;;;;;;;;;;4.50;99.90;;;;;;5061634;28;20355;-87
2022/11/30 01:10:34;;;;;;;;;;;4.30;99.90;;;;;;5061435;28;19964;-86
2022/11/30 01:13:00;;;;;;;;;;;4.30;99.90;;;;;;5062829;28;19982;-86
2022/11/30 01:15:25;;;;;;;;;;;4.30;99.90;;;;;;5060968;28;20360;-86
2022/11/30 01:17:51;;;;;;;;;;;4.40;99.90;;;;;;5063873;28;19921;-86
2022/11/30 01:20:16;;;;;;;;;;;4.40;99.90;;;;;;5058910;28;20428;-86
2022/11/30 01:22:42;;;;;;;;;;;4.40;99.90;;;;;;5063129;28;19986;-86
2022/11/30 01:25:07;;;;;;;;;;;4.40;99.90;;;;;;5059821;28;20016;-87
2022/11/30 01:27:37;;;;;;;;;;;4.40;99.90;;;;;;5060454;28;19924;-87
2022/11/30 01:30:04;;;;;;;;;;;4.40;99.90;;;;;;5061292;28;20356;-87
2022/11/30 01:32:29;;;;;;;;;;;4.40;99.90;;;;;;5062640;28;19963;-87
2022/11/30 01:34:55;;;;;;;;;;;4.30;99.90;;;;;;5059950;28;20437;-86
2022/11/30 01:37:20;;;;;;;;;;;4.20;99.90;;;;;;5062586;28;20050;-86
2022/11/30 01:39:46;;;;;;;;;;;4.10;99.90;;;;;;5060193;28;19970;-86
2022/11/30 01:42:16;;;;;;;;;;;4.10;99.90;;;;;;5063449;28;19920;-86
2022/11/30 01:44:41;;;;;;;;;;;4.00;99.90;;;;;;5058107;28;19951;-87
2022/11/30 01:47:09;;;;;;;;;;;4.00;99.90;;;;;;5063231;28;20391;-87
2022/11/30 01:49:36;;;;;;;;;;;3.90;99.90;;;;;;5061826;28;19920;-87
2022/11/30 01:52:02;;;;;;;;;;;3.90;99.90;;;;;;5062204;28;19927;-87
2022/11/30 01:54:44;;;;;;;;;;;3.80;99.90;;;;;;5059488;28;19920;-87
2022/11/30 01:57:12;;;;;;;;;;;3.60;99.90;;;;;;5080069;28;19924;-87
2022/11/30 01:59:38;;;;;;;;;;;3.80;99.90;;;;;;5059991;28;19921;-87
2022/11/30 02:02:03;;;;;;;;;;;3.70;99.90;;;;;;5065713;28;19925;-87
2022/11/30 02:04:31;;;;;;;;;;;3.80;99.90;;;;;;5065490;28;20019;-86
2022/11/30 02:06:57;;;;;;;;;;;3.70;99.90;;;;;;5066037;28;19966;-86
2022/11/30 02:09:24;;;;;;;;;;;3.70;99.90;;;;;;5065858;28;19966;-85
2022/11/30 02:11:50;;;;;;;;;;;3.60;99.90;;;;;;5066863;28;19920;-87
2022/11/30 02:14:21;;;;;;;;;;;3.70;99.90;;;;;;5063574;28;19943;-86
2022/11/30 02:16:56;;;;;;;;;;;5.20;99.90;;;;;;5065825;28;19971;-86
2022/11/30 02:19:33;;;;;;;;;;;3.70;99.90;;;;;;5065373;28;19927;-85
2022/11/30 02:22:02;;;;;;;;;;;3.70;99.90;;;;;;5064851;28;19920;-85
2022/11/30 02:24:42;;;;;;;;;;;3.80;99.90;;;;;;5064494;28;19936;-85
2022/11/30 02:27:26;;;;;;;;;;;3.80;99.90;;;;;;5067145;28;19924;-85
2022/11/30 02:30:00;;;;;;;;;;;3.80;99.90;;;;;;5064366;28;19925;-85
2022/11/30 02:32:41;;;;;;;;;;;3.80;99.90;;;;;;5080813;28;19920;-84
2022/11/30 02:35:08;;;;;;;;;;;3.80;99.90;;;;;;5062906;28;19928;-84
2022/11/30 02:37:34;;;;;;;;;;;3.80;99.90;;;;;;5065827;28;20015;-85
2022/11/30 02:39:59;;;;;;;;;;;3.70;99.90;;;;;;5063213;28;20027;-85
2022/11/30 02:42:25;;;;;;;;;;;3.70;99.90;;;;;;5065731;28;20483;-85
2022/11/30 02:44:51;;;;;;;;;;;3.60;99.90;;;;;;5062803;28;19920;-86
2022/11/30 02:47:20;;;;;;;;;;;3.60;99.90;;;;;;5066244;28;19925;-85
2022/11/30 02:49:49;;;;;;;;;;;3.50;99.90;;;;;;5062677;28;20287;-85
2022/11/30 02:52:18;;;;;;;;;;;3.50;99.90;;;;;;5064490;28;19920;-85
2022/11/30 02:54:44;;;;;;;;;;;3.40;99.90;;;;;;5063723;28;19954;-85
2022/11/30 02:57:10;;;;;;;;;;;3.40;99.90;;;;;;5066179;28;19920;-85
2022/11/30 02:59:35;;;;;;;;;;;3.30;99.90;;;;;;5064669;28;19920;-85
2022/11/30 03:02:01;;;;;;;;;;;3.30;99.90;;;;;;5066500;28;19920;-84
2022/11/30 03:04:26;;;;;;;;;;;3.20;99.90;;;;;;5063181;28;19921;-85
2022/11/30 03:06:52;;;;;;;;;;;3.20;99.90;;;;;;5062911;28;19931;-85
2022/11/30 03:09:17;;;;;;;;;;;3.20;99.90;;;;;;5064727;28;19928;-85
2022/11/30 03:11:46;;;;;;;;;;;3.20;99.90;;;;;;5060935;28;20011;-85
2022/11/30 03:14:11;;;;;;;;;;;3.20;99.90;;;;;;5063295;28;20434;-85
2022/11/30 03:16:37;;;;;;;;;;;3.10;99.90;;;;;;5064003;28;19928;-85
2022/11/30 03:19:03;;;;;;;;;;;3.10;99.90;;;;;;5061351;28;19928;-85
2022/11/30 03:21:28;;;;;;;;;;;3.10;99.90;;;;;;5065857;28;19920;-86
2022/11/30 03:23:54;;;;;;;;;;;3.10;99.90;;;;;;5063095;28;19947;-86
2022/11/30 03:26:19;;;;;;;;;;;3.10;99.90;;;;;;5064392;28;19975;-85
2022/11/30 03:28:45;;;;;;;;;;;4.30;99.90;;;;;;5062583;28;19927;-87
2022/11/30 03:31:11;;;;;;;;;;;3.70;99.90;;;;;;5062609;28;19921;-85
2022/11/30 03:33:39;;;;;;;;;;;3.00;99.90;;;;;;5063779;28;19955;-85
2022/11/30 03:36:05;;;;;;;;;;;2.90;99.90;;;;;;5063031;28;20023;-85
2022/11/30 03:38:31;;;;;;;;;;;2.90;99.90;;;;;;5065313;28;20344;-85
2022/11/30 03:41:16;;;;;;;;;;;2.90;99.90;;;;;;5061577;28;19925;-86
2022/11/30 03:43:42;;;;;;;;;;;2.90;99.90;;;;;;5063830;28;19921;-86
2022/11/30 03:46:08;;;;;;;;;;;2.90;99.90;;;;;;5063939;28;20489;-86
2022/11/30 03:48:34;;;;;;;;;;;2.90;99.90;;;;;;5061777;28;20003;-85
2022/11/30 03:51:00;;;;;;;;;;;2.90;99.90;;;;;;5065004;28;19966;-86
2022/11/30 03:53:26;;;;;;;;;;;2.90;99.90;;;;;;5062624;28;20353;-86
2022/11/30 03:55:52;;;;;;;;;;;2.90;99.90;;;;;;5060157;28;19928;-85
2022/11/30 03:58:18;;;;;;;;;;;2.90;99.90;;;;;;5064968;28;19920;-85
2022/11/30 04:00:44;;;;;;;;;;;2.90;99.90;;;;;;5095109;28;20299;-85
2022/11/30 04:03:09;;;;;;;;;;;2.90;99.90;;;;;;5061236;28;19964;-85
2022/11/30 04:05:35;;;;;;;;;;;2.90;99.90;;;;;;5062647;28;19933;-85
2022/11/30 04:08:00;;;;;;;;;;;2.90;99.90;;;;;;5063422;28;20296;-85
2022/11/30 04:10:26;;;;;;;;;;;2.90;99.90;;;;;;5060230;28;20011;-84
2022/11/30 04:12:51;;;;;;;;;;;2.90;99.90;;;;;;5064870;28;19920;-85
2022/11/30 04:15:17;;;;;;;;;;;2.80;99.90;;;;;;5061379;28;19972;-84
2022/11/30 04:17:42;;;;;;;;;;;2.80;99.90;;;;;;5062460;28;19935;-86
2022/11/30 04:20:08;;;;;;;;;;;2.80;99.90;;;;;;5062688;28;19931;-85
2022/11/30 04:22:33;;;;;;;;;;;2.70;99.90;;;;;;5061148;28;19924;-86
2022/11/30 04:24:59;;;;;;;;;;;2.70;99.90;;;;;;5062447;28;20007;-86
2022/11/30 04:27:24;;;;;;;;;;;2.70;99.90;;;;;;5063031;28;19974;-85
2022/11/30 04:29:50;;;;;;;;;;;2.70;99.90;;;;;;5060315;28;19921;-86
2022/11/30 04:32:15;;;;;;;;;;;2.70;99.90;;;;;;5063467;28;20291;-85
2022/11/30 04:34:41;;;;;;;;;;;2.70;99.90;;;;;;5061732;28;19920;-86
2022/11/30 04:37:06;;;;;;;;;;;2.70;99.90;;;;;;5061629;28;19921;-86
2022/11/30 04:39:32;;;;;;;;;;;2.70;99.90;;;;;;5061617;28;19943;-88
2022/11/30 04:41:58;;;;;;;;;;;2.70;99.90;;;;;;5063594;28;19963;-88
2022/11/30 04:44:23;;;;;;;;;;;2.70;99.90;;;;;;5061234;28;19971;-85
2022/11/30 04:46:49;;;;;;;;;;;2.70;99.90;;;;;;5062811;28;19965;-85
2022/11/30 04:49:14;;;;;;;;;;;2.70;99.90;;;;;;5061056;28;19928;-85
2022/11/30 04:51:40;;;;;;;;;;;2.60;99.90;;;;;;5062635;28;19916;-83
2022/11/30 04:54:05;;;;;;;;;;;2.70;99.90;;;;;;5059902;28;19932;-78
2022/11/30 04:56:31;;;;;;;;;;;2.60;99.90;;;;;;5060709;28;19990;-72
2022/11/30 04:58:56;;;;;;;;;;;2.60;99.90;;;;;;5060361;28;19917;-76
2022/11/30 05:01:22;;;;;;;;;;;2.50;99.90;;;;;;5061881;28;19920;-77
2022/11/30 05:03:47;;;;;;;;;;;2.50;99.90;;;;;;5060218;28;19925;-78
2022/11/30 05:06:13;;;;;;;;;;;2.40;99.90;;;;;;5062963;28;19927;-82
2022/11/30 05:08:38;;;;;;;;;;;2.40;99.90;;;;;;5059314;28;19921;-77
2022/11/30 05:11:04;;;;;;;;;;;2.30;99.90;;;;;;5062338;28;20403;-79
2022/11/30 05:13:29;;;;;;;;;;;2.20;99.90;;;;;;5060466;28;19922;-79
2022/11/30 05:15:55;;;;;;;;;;;2.20;99.90;;;;;;5061039;28;19920;-81
2022/11/30 05:18:21;;;;;;;;;;;2.20;99.90;;;;;;5061721;28;19966;-79
2022/11/30 05:20:50;;;;;;;;;;;2.20;99.90;;;;;;5060673;28;19920;-73
2022/11/30 05:23:16;;;;;;;;;;;2.30;99.90;;;;;;5059823;28;19920;-75
2022/11/30 05:25:42;;;;;;;;;;;2.30;99.90;;;;;;5061631;28;19920;-78
2022/11/30 05:28:07;;;;;;;;;;;2.30;99.90;;;;;;5060591;28;19927;-71
2022/11/30 05:30:33;;;;;;;;;;;2.30;99.90;;;;;;5060187;28;19923;-79
2022/11/30 05:32:58;;;;;;;;;;;2.30;99.90;;;;;;5062130;28;19921;-82
2022/11/30 05:35:24;;;;;;;;;;;2.30;99.90;;;;;;5063402;28;20019;-81
2022/11/30 05:37:49;;;;;;;;;;;2.40;99.90;;;;;;5066389;28;20003;-75
2022/11/30 05:40:18;;;;;;;;;;;2.50;99.90;;;;;;5059571;28;19920;-77
2022/11/30 05:42:43;;;;;;;;;;;2.50;99.90;;;;;;5059896;28;19924;-74
2022/11/30 05:45:09;;;;;;;;;;;2.60;99.90;;;;;;5054371;28;19933;-74
2022/11/30 05:47:34;;;;;;;;;;;2.70;99.90;;;;;;5053565;28;19975;-75
2022/11/30 05:50:00;;;;;;;;;;;2.70;99.90;;;;;;5054746;28;19921;-79
2022/11/30 05:52:25;;;;;;;;;;;2.80;99.90;;;;;;5056503;28;19938;-81
2022/11/30 05:54:51;;;;;;;;;;;2.80;99.90;;;;;;5062735;28;19928;-85
2022/11/30 05:57:16;;;;;;;;;;;2.90;99.90;;;;;;5059079;28;19959;-79
2022/11/30 05:59:42;;;;;;;;;;;5.50;99.90;;;;;;5056281;28;19921;-77
2022/11/30 06:02:07;;;;;;;;;;;2.80;99.90;;;;;;5055101;28;19947;-76
2022/11/30 06:04:33;;;;;;;;;;;2.90;99.90;;;;;;5054201;28;19929;-76
2022/11/30 06:06:58;;;;;;;;;;;2.80;99.90;;;;;;5063284;28;19920;-80
2022/11/30 06:09:24;;;;;;;;;;;2.80;99.90;;;;;;5057497;28;20019;-80
2022/11/30 06:11:50;;;;;;;;;;;2.90;99.90;;;;;;5055254;28;20268;-80
2022/11/30 06:14:15;;;;;;;;;;;2.90;99.90;;;;;;5055789;28;19920;-80
2022/11/30 06:16:41;;;;;;;;;;;2.90;99.90;;;;;;5056048;28;19999;-90
2022/11/30 06:19:06;;;;;;;;;;;3.00;99.90;;;;;;5054837;28;19924;-73
2022/11/30 06:21:32;;;;;;;;;;;3.00;99.90;;;;;;5057999;28;19920;-71
2022/11/30 06:23:57;;;;;;;;;;;3.00;99.90;;;;;;5058625;28;20376;-71
2022/11/30 06:26:23;;;;;;;;;;;3.10;99.90;;;;;;5054911;28;20327;-72
2022/11/30 06:28:48;;;;;;;;;;;3.20;99.90;;;;;;5053859;28;19925;-72
2022/11/30 06:31:14;;;;;;;;;;;3.20;99.90;;;;;;5060321;28;19929;-72
2022/11/30 06:33:39;;;;;;;;;;;3.20;99.90;;;;;;5055114;28;20330;-72
2022/11/30 06:36:05;;;;;;;;;;;3.10;99.90;;;;;;5058565;28;20015;-72
2022/11/30 06:38:30;;;;;;;;;;;3.10;99.90;;;;;;5060818;28;19920;-72
2022/11/30 06:41:07;;;;;;;;;;;3.10;99.90;;;;;;5062804;28;19921;-73
2022/11/30 06:43:36;;;;;;;;;;;3.00;99.90;;;;;;5059925;28;20004;-71
2022/11/30 06:46:02;;;;;;;;;;;3.00;99.90;;;;;;5061415;28;20862;-72
2022/11/30 06:48:28;;;;;;;;;;;3.00;99.90;;;;;;5063080;28;19924;-71
2022/11/30 06:50:54;;;;;;;;;;;2.80;99.90;;;;;;5060919;28;20509;-71
2022/11/30 06:53:19;;;;;;;;;;;2.80;99.90;;;;;;5064289;28;19951;-72
2022/11/30 06:55:45;;;;;;;;;;;2.70;99.90;;;;;;5063913;28;20371;-78
2022/11/30 06:58:10;;;;;;;;;;;2.60;99.90;;;;;;5062521;28;19926;-79
2022/11/30 07:00:37;;;;;;;;;;;2.60;99.90;;;;;;5064303;28;19966;-78
2022/11/30 07:03:03;;;;;;;;;;;2.50;99.90;;;;;;5065028;28;19995;-78
2022/11/30 07:05:29;;;;;;;;;;;2.50;99.90;;;;;;5065265;28;20015;-86
2022/11/30 07:07:54;;;;;;;;;;;2.50;99.90;;;;;;5064918;28;19924;-81
2022/11/30 07:10:21;;;;;;;;;;;2.40;99.90;;;;;;5062965;28;20430;-85
2022/11/30 07:12:47;;;;;;;;;;;2.40;99.90;;;;;;5063433;28;20058;-87
2022/11/30 07:15:16;;;;;;;;;;;2.30;99.90;;;;;;5064697;28;20402;-85
2022/11/30 07:17:41;;;;;;;;;;;2.30;99.90;;;;;;5066713;28;19927;-84
2022/11/30 07:20:07;;;;;;;;;;;2.30;99.90;;;;;;5063220;28;19920;-85
2022/11/30 07:22:33;;;;;;;;;;;2.30;99.90;;;;;;5062236;28;19928;-75
2022/11/30 07:27:43;;;;;;;;;;;2.30;99.90;;;;;;5069000;28;20006;-83
2022/11/30 07:30:08;;;;;;;;;;;2.30;99.90;;;;;;5063665;28;19982;-83
2022/11/30 07:32:34;;;;;;;;;;;2.20;99.90;;;;;;5063648;28;19924;-80
2022/11/30 07:34:59;;;;;;;;;;;2.10;99.90;;;;;;5067164;28;19927;-77
2022/11/30 07:37:25;;;;;;;;;;;2.10;99.90;;;;;;5060975;28;19925;-79
2022/11/30 07:39:50;;;;;;;;;;;2.10;99.90;;;;;;5058104;28;20371;-79
2022/11/30 07:42:16;;;;;;;;;;;2.10;99.90;;;;;;5060891;28;19921;-79
2022/11/30 07:44:42;;;;;;;;;;;2.10;99.90;;;;;;5058567;28;19932;-79
2022/11/30 07:47:07;;;;;;;;;;;2.10;99.90;;;;;;5060856;28;19936;-79
2022/11/30 07:49:33;;;;;;;;;;;2.20;99.90;;;;;;5060071;28;19921;-79
2022/11/30 07:51:58;;;;;;;;;;;2.20;99.90;;;;;;5060989;28;19917;-79
2022/11/30 07:54:24;;;;;;;;;;;2.20;99.90;;;;;;5062190;28;20395;-79
2022/11/30 07:56:49;;;;;;;;;;;2.20;99.90;;;;;;5059028;28;20223;-79
2022/11/30 07:59:15;;;;;;;;;;;2.20;99.90;;;;;;5060922;28;19952;-79
2022/11/30 08:01:40;;;;;;;;;;;2.30;99.90;;;;;;5061362;28;19951;-79
2022/11/30 08:04:06;;;;;;;;;;;2.20;99.90;;;;;;5060437;28;20435;-79
2022/11/30 08:06:31;;;;;;;;;;;2.40;99.90;;;;;;5061831;28;19927;-79
2022/11/30 08:08:58;;;;;;;;;;;2.40;99.90;;;;;;5061211;28;19947;-79
2022/11/30 08:11:25;;;;;;;;;;;2.40;99.90;;;;;;5062059;28;19920;-79
2022/11/30 08:13:51;;;;;;;;;;;2.60;99.90;;;;;;5061153;28;19921;-79
2022/11/30 08:16:18;;;;;;;;;;;2.60;99.90;;;;;;5063850;28;19921;-79
2022/11/30 08:18:44;;;;;;;;;;;2.80;99.90;;;;;;5060708;28;19936;-79
2022/11/30 08:21:11;;;;;;;;;;;2.90;99.90;;;;;;5065589;28;19927;-79
2022/11/30 08:23:41;;;;;;;;;;;3.00;99.90;;;;;;5061263;28;19955;-79
2022/11/30 08:26:12;;;;;;;;;;;3.10;99.90;;;;;;5061576;28;19921;-79
2022/11/30 08:28:37;;;;;;;;;;;3.00;99.90;;;;;;5060722;28;19920;-79
2022/11/30 08:31:07;;;;;;;;;;;3.20;99.90;;;;;;5064625;28;20019;-79
2022/11/30 08:33:34;;;;;;;;;;;3.30;99.90;;;;;;5060919;28;19975;-79
2022/11/30 08:36:16;;;;;;;;;;;3.40;99.90;;;;;;5062713;28;19927;-79
2022/11/30 08:38:42;;;;;;;;;;;3.40;99.90;;;;;;5062540;28;19920;-79
2022/11/30 08:41:09;;;;;;;;;;;3.50;99.90;;;;;;5061481;28;19917;-79
2022/11/30 08:43:34;;;;;;;;;;;4.60;99.90;;;;;;5063286;28;20073;-79
2022/11/30 08:46:03;;;;;;;;;;;3.70;99.90;;;;;;5063785;28;20016;-79
2022/11/30 08:48:29;;;;;;;;;;;3.80;99.90;;;;;;5063611;28;20399;-79
2022/11/30 08:50:57;;;;;;;;;;;3.90;99.90;;;;;;5061417;28;19920;-79
2022/11/30 08:53:23;;;;;;;;;;;3.90;99.90;;;;;;5062917;28;19920;-79
2022/11/30 08:55:55;;;;;;;;;;;3.90;99.90;;;;;;5059572;28;19920;-79
2022/11/30 08:58:21;;;;;;;;;;;4.10;99.90;;;;;;5060102;28;19920;-79
2022/11/30 09:00:46;;;;;;;;;;;4.50;99.90;;;;;;5060542;28;19970;-79
2022/11/30 09:03:12;;;;;;;;;;;5.30;99.90;;;;;;5063236;28;19921;-79
2022/11/30 09:05:37;;;;;;;;;;;7.90;99.90;;;;;;5057384;28;20283;-76
2022/11/30 09:08:03;;;;;;;;;;;7.10;99.90;;;;;;5060957;28;20317;-77
2022/11/30 09:10:28;;;;;;;;;;;7.00;99.90;;;;;;5062795;28;19936;-77
2022/11/30 09:12:54;;;;;;;;;;;8.10;99.90;;;;;;5059293;28;19931;-77
2022/11/30 09:15:19;;;;;;;;;;;8.90;99.90;;;;;;5061088;28;19924;-77
2022/11/30 09:17:45;;;;;;;;;;;8.50;99.90;;;;;;5060511;28;19920;-77
2022/11/30 09:20:11;;;;;;;;;;;9.00;99.90;;;;;;5061696;28;20287;-77
2022/11/30 09:22:36;;;;;;;;;;;8.20;99.90;;;;;;5062665;28;19924;-77
2022/11/30 09:25:02;;;;;;;;;;;8.00;99.90;;;;;;5058233;28;20030;-77
2022/11/30 09:27:30;;;;;;;;;;;7.70;99.90;;;;;;5063699;28;19927;-77
2022/11/30 09:29:56;;;;;;;;;;;8.30;99.90;;;;;;5062680;28;20102;-77
2022/11/30 09:32:21;;;;;;;;;;;8.30;99.90;;;;;;5060358;28;20023;-78
2022/11/30 09:34:47;;;;;;;;;;;8.20;99.90;;;;;;5062321;28;20244;-77
2022/11/30 09:37:12;;;;;;;;;;;9.20;99.90;;;;;;5060799;28;20375;-77
2022/11/30 09:39:38;;;;;;;;;;;8.60;99.90;;;;;;5059200;28;19920;-77
2022/11/30 09:42:16;;;;;;;;;;;10.00;99.90;;;;;;5060197;28;20335;-77
2022/11/30 09:45:00;;;;;;;;;;;8.80;99.90;;;;;;5062021;28;19921;-77
2022/11/30 09:47:38;;;;;;;;;;;8.70;99.90;;;;;;5059603;28;19971;-77
2022/11/30 09:50:11;;;;;;;;;;;8.60;99.90;;;;;;5060298;28;19998;-77
2022/11/30 09:52:39;;;;;;;;;;;8.70;99.90;;;;;;5061100;28;20395;-77
2022/11/30 09:55:09;;;;;;;;;;;9.70;99.90;;;;;;5060610;28;19993;-77
2022/11/30 09:57:43;;;;;;;;;;;8.90;99.90;;;;;;5062265;28;19939;-77
2022/11/30 10:00:13;;;;;;;;;;;8.90;99.90;;;;;;5061148;28;19925;-77
2022/11/30 10:02:39;;;;;;;;;;;8.90;99.90;;;;;;5061140;28;19924;-77
2022/11/30 10:05:12;;;;;;;;;;;8.70;99.90;;;;;;5060131;28;20303;-77
2022/11/30 10:07:38;;;;;;;;;;;8.60;99.90;;;;;;5057717;28;19920;-77
2022/11/30 10:10:03;;;;;;;;;;;8.60;99.90;;;;;;5061302;28;19948;-77
2022/11/30 10:12:38;;;;;;;;;;;8.70;99.90;;;;;;5062311;28;20003;-77
2022/11/30 10:15:33;;;;;;;;;;;8.70;99.90;;;;;;5059199;28;19974;-77
2022/11/30 10:18:10;;;;;;;;;;;8.70;99.90;;;;;;5049612;28;19921;-77
2022/11/30 10:20:47;;;;;;;;;;;8.60;99.90;;;;;;5059874;28;19920;-77
2022/11/30 10:23:21;;;;;;;;;;;8.60;99.90;;;;;;5064390;28;19921;-77
2022/11/30 10:25:50;;;;;;;;;;;8.60;99.90;;;;;;5063152;28;19960;-76
2022/11/30 10:28:17;;;;;;;;;;;8.70;99.90;;;;;;5065025;28;19925;-76
2022/11/30 10:30:44;;;;;;;;;;;8.70;99.90;;;;;;5066435;28;20274;-77
2022/11/30 10:33:12;;;;;;;;;;;8.70;99.90;;;;;;5064142;28;20112;-77
2022/11/30 10:35:49;;;;;;;;;;;9.10;99.90;;;;;;5065277;28;19999;-77
2022/11/30 10:38:21;;;;;;;;;;;8.60;99.90;;;;;;5063334;28;19916;-77
2022/11/30 10:40:58;;;;;;;;;;;8.40;99.90;;;;;;5063031;28;19934;-77
2022/11/30 10:43:26;;;;;;;;;;;8.30;99.90;;;;;;5064165;28;20331;-77
2022/11/30 10:45:52;;;;;;;;;;;8.20;99.90;;;;;;5062022;28;19928;-77
2022/11/30 10:48:29;;;;;;;;;;;9.00;99.90;;;;;;5066445;28;19921;-77
2022/11/30 10:50:55;;;;;;;;;;;7.90;99.90;;;;;;5063858;28;20054;-77
2022/11/30 10:53:20;;;;;;;;;;;7.90;99.90;;;;;;5062703;28;20513;-77
2022/11/30 10:55:58;;;;;;;;;;;7.80;99.90;;;;;;5062143;28;19927;-77
2022/11/30 10:58:33;;;;;;;;;;;7.70;99.90;;;;;;5062058;28;19925;-77
2022/11/30 11:01:09;;;;;;;;;;;7.60;99.90;;;;;;5064748;28;19920;-78
2022/11/30 11:03:35;;;;;;;;;;;7.60;99.90;;;;;;5063317;28;19929;-78
2022/11/30 11:06:11;;;;;;;;;;;7.50;99.90;;;;;;5062657;28;19927;-78
2022/11/30 11:08:37;;;;;;;;;;;7.40;99.90;;;;;;5065609;28;19920;-78
2022/11/30 11:11:02;;;;;;;;;;;7.40;99.90;;;;;;5066234;28;19924;-77
2022/11/30 11:13:41;;;;;;;;;;;7.30;99.90;;;;;;5062520;28;20353;-78
2022/11/30 11:16:11;;;;;;;;;;;7.40;99.90;;;;;;5065630;28;19916;-77
2022/11/30 11:18:51;;;;;;;;;;;7.60;99.90;;;;;;5060406;28;20287;-77
2022/11/30 11:21:17;;;;;;;;;;;7.40;99.90;;;;;;5063062;28;19927;-77
2022/11/30 11:23:43;;;;;;;;;;;7.30;99.90;;;;;;5061580;28;19920;-77
2022/11/30 11:26:17;;;;;;;;;;;9.10;99.90;;;;;;5064242;28;19960;-77
2022/11/30 11:28:44;;;;;;;;;;;7.40;99.90;;;;;;5062364;28;19920;-77
2022/11/30 11:31:17;;;;;;;;;;;7.80;99.90;;;;;;5065661;28;19971;-77
2022/11/30 11:33:52;;;;;;;;;;;7.40;99.90;;;;;;5061161;28;19921;-77
2022/11/30 11:36:26;;;;;;;;;;;7.40;99.90;;;;;;5064362;28;19927;-77
2022/11/30 11:38:51;;;;;;;;;;;7.40;99.90;;;;;;5062774;28;19920;-77
2022/11/30 11:41:25;;;;;;;;;;;7.40;99.90;;;;;;5064211;28;19928;-77
2022/11/30 11:43:58;;;;;;;;;;;7.40;99.90;;;;;;5063546;28;19916;-77
2022/11/30 11:46:24;;;;;;;;;;;7.40;99.90;;;;;;5058983;28;19928;-77
2022/11/30 11:48:55;;;;;;;;;;;8.40;99.90;;;;;;5063353;28;19920;-77
2022/11/30 11:51:30;;;;;;;;;;;7.40;99.90;;;;;;5063603;28;19920;-77
2022/11/30 11:53:57;;;;;;;;;;;7.40;99.90;;;;;;5063957;28;20039;-77
2022/11/30 11:56:25;;;;;;;;;;;7.40;99.90;;;;;;5062047;28;20002;-78
2022/11/30 11:59:05;;;;;;;;;;;7.40;99.90;;;;;;5063414;28;19921;-77
2022/11/30 12:01:31;;;;;;;;;;;7.40;99.90;;;;;;5060426;28;20401;-78
2022/11/30 12:04:20;;;;;;;;;;;7.40;99.90;;;;;;5060948;28;19921;-78
2022/11/30 12:06:47;;;;;;;;;;;7.40;99.90;;;;;;5052094;28;19927;-77
2022/11/30 12:09:19;;;;;;;;;;;7.30;99.90;;;;;;5062785;28;20013;-77
2022/11/30 12:11:46;;;;;;;;;;;7.40;99.90;;;;;;5080226;28;19932;-77
2022/11/30 12:14:13;;;;;;;;;;;7.30;99.90;;;;;;5059000;28;19927;-77
2022/11/30 12:16:55;;;;;;;;;;;7.30;99.90;;;;;;5063644;28;19920;-77
2022/11/30 12:19:33;;;;;;;;;;;7.30;99.90;;;;;;5064303;28;19928;-77
2022/11/30 12:22:17;;;;;;;;;;;7.30;99.90;;;;;;5062013;28;19920;-77
2022/11/30 12:24:58;;;;;;;;;;;7.30;99.90;;;;;;5061549;28;19920;-77
2022/11/30 12:27:39;;;;;;;;;;;7.30;99.90;;;;;;5077182;28;20452;-77
2022/11/30 12:30:23;;;;;;;;;;;7.20;99.90;;;;;;5060214;28;20332;-77
2022/11/30 12:32:51;;;;;;;;;;;7.20;99.90;;;;;;5062691;28;19973;-77
2022/11/30 12:35:20;;;;;;;;;;;7.20;99.90;;;;;;5062811;28;19928;-77
2022/11/30 12:37:45;;;;;;;;;;;7.20;99.90;;;;;;5059377;28;19921;-77
2022/11/30 12:40:19;;;;;;;;;;;7.30;99.90;;;;;;5062667;28;19927;-77
2022/11/30 12:42:47;;;;;;;;;;;7.20;99.90;;;;;;5061858;28;19956;-77
2022/11/30 12:45:21;;;;;;;;;;;7.20;99.90;;;;;;5061255;28;20333;-77
2022/11/30 12:48:00;;;;;;;;;;;7.20;99.90;;;;;;5063001;28;19979;-77
2022/11/30 12:50:29;;;;;;;;;;;7.20;99.90;;;;;;5060438;28;19920;-77
2022/11/30 12:53:13;;;;;;;;;;;7.10;99.90;;;;;;5060807;28;19932;-77
2022/11/30 12:55:57;;;;;;;;;;;7.10;99.90;;;;;;5060287;28;19927;-77
2022/11/30 12:58:26;;;;;;;;;;;7.10;99.90;;;;;;5059827;28;20283;-77
2022/11/30 13:01:04;;;;;;;;;;;7.10;99.90;;;;;;5060212;28;20283;-77
2022/11/30 13:03:40;;;;;;;;;;;7.10;99.90;;;;;;5059616;28;20269;-77
2022/11/30 13:06:08;;;;;;;;;;;7.00;99.90;;;;;;5062177;28;19928;-77
2022/11/30 13:08:41;;;;;;;;;;;7.10;99.90;;;;;;5062421;28;19920;-77
2022/11/30 13:11:13;;;;;;;;;;;7.10;99.90;;;;;;5063657;28;19926;-77
2022/11/30 13:13:42;;;;;;;;;;;7.00;99.90;;;;;;5060610;28;19947;-77
2022/11/30 13:16:08;;;;;;;;;;;7.00;99.90;;;;;;5062067;28;19962;-76
2022/11/30 13:18:35;;;;;;;;;;;7.00;99.90;;;;;;5060907;28;19921;-77
2022/11/30 13:21:03;;;;;;;;;;;7.00;99.90;;;;;;5063114;28;20371;-77
2022/11/30 13:23:38;;;;;;;;;;;7.00;99.90;;;;;;5059592;28;20261;-78
2022/11/30 13:26:15;;;;;;;;;;;7.10;99.90;;;;;;5061026;28;20337;-78
2022/11/30 13:28:41;;;;;;;;;;;7.10;99.90;;;;;;5060656;28;19920;-79
2022/11/30 13:31:06;;;;;;;;;;;8.10;99.90;;;;;;5062051;28;19999;-78
2022/11/30 13:33:51;;;;;;;;;;;7.00;99.90;;;;;;5061001;28;20247;-78
2022/11/30 13:36:37;;;;;;;;;;;7.00;99.90;;;;;;5058620;28;20020;-78
2022/11/30 13:39:20;;;;;;;;;;;7.00;99.90;;;;;;5060997;28;19925;-78
2022/11/30 13:42:09;;;;;;;;;;;7.00;99.90;;;;;;5078685;28;19927;-79
2022/11/30 13:44:36;;;;;;;;;;;7.00;99.90;;;;;;5039470;28;19975;-78
2022/11/30 13:47:04;;;;;;;;;;;7.00;99.90;;;;;;5059745;28;20387;-78
2022/11/30 13:49:34;;;;;;;;;;;7.30;99.90;;;;;;5061301;28;19924;-79
2022/11/30 13:52:00;;;;;;;;;;;7.00;99.90;;;;;;5060922;28;19920;-78
2022/11/30 13:54:37;;;;;;;;;;;7.70;99.90;;;;;;5059875;28;19935;-77
2022/11/30 13:57:21;;;;;;;;;;;7.00;99.90;;;;;;5063251;28;19970;-78
2022/11/30 13:59:48;;;;;;;;;;;7.10;99.90;;;;;;5060361;28;20455;-79
2022/11/30 14:02:30;;;;;;;;;;;7.20;99.90;;;;;;5067132;28;19927;-79
2022/11/30 14:05:15;;;;;;;;;;;7.20;99.90;;;;;;5064863;28;20408;-80
2022/11/30 14:07:59;;;;;;;;;;;7.90;99.90;;;;;;5063328;28;19920;-80
2022/11/30 14:10:27;;;;;;;;;;;7.30;99.90;;;;;;5064905;28;20417;-79
2022/11/30 14:13:03;;;;;;;;;;;7.30;99.90;;;;;;5064015;28;19920;-78
2022/11/30 14:15:37;;;;;;;;;;;7.30;99.90;;;;;;5062833;28;19991;-78
2022/11/30 14:18:06;;;;;;;;;;;7.20;99.90;;;;;;5063702;28;19933;-79
2022/11/30 14:20:33;;;;;;;;;;;7.30;99.90;;;;;;5064556;28;20903;-75
2022/11/30 14:23:05;;;;;;;;;;;7.20;99.90;;;;;;5063031;28;19917;-73
2022/11/30 14:25:32;;;;;;;;;;;7.20;99.90;;;;;;5064850;28;19921;-75
2022/11/30 14:27:59;;;;;;;;;;;7.20;99.90;;;;;;5064880;28;19931;-73
2022/11/30 14:30:24;;;;;;;;;;;7.30;99.90;;;;;;5065429;28;19925;-76
2022/11/30 14:32:54;;;;;;;;;;;7.20;99.90;;;;;;5064645;28;20334;-75
2022/11/30 14:35:20;;;;;;;;;;;7.20;99.90;;;;;;5066959;28;19920;-74
2022/11/30 14:37:53;;;;;;;;;;;7.20;99.90;;;;;;5063885;28;20271;-74
2022/11/30 14:40:20;;;;;;;;;;;7.20;99.90;;;;;;5064575;28;19943;-74